NCAR-RAP Real-Time Weather Data

Output produced by METARs form (21 May 2019  10:58 UTC)
found at http://weather.rap.ucar.edu/surface/
 
RJOB 211000Z 02004KT 340V060 9999 FEW030 SCT050 19/08 Q1005
RJOB 210900Z 25007KT 9999 FEW030 SCT050 BKN/// 20/11 Q1004
RJOB 210800Z 22006KT 180V250 9999 FEW030 SCT060 BKN/// 21/12 Q1004
RJOB 210700Z 23009KT 200V280 9999 FEW030 SCT060 BKN/// 21/12 Q1003
RJOB 210600Z 25009KT 200V270 9999 FEW030 BKN/// 22/12 Q1003
RJOB 210500Z VRB04KT 9999 FEW030 BKN/// 23/08 Q1003
RJOB 210437Z 36010KT 9999 FEW030 BKN/// 23/08 Q1003 RMK 1CU030 A2964
RJOB 210400Z 25004KT 190V350 9999 FEW030 SCT045 BKN/// 22/09 Q1004
RJOB 210300Z VRB04KT 9999 FEW025 SCT045 22/10 Q1004
RJOB 210200Z 29006KT 210V350 9999 FEW025 SCT035 20/10 Q1005
RJOB 210100Z VRB05KT 9999 FEW020 SCT035 19/11 Q1005
RJOB 210000Z 31006KT 260V350 9999 FEW020 SCT030 BKN/// 18/11 Q1005
RJOB 202300Z 27006KT 220V340 9999 FEW010 BKN/// 17/12 Q1005
RJOB 202200Z 29006KT 9999 FEW015 BKN/// 15/13 Q1005
RJOB 202115Z 36003KT 290V070 9000 FEW001 BKN/// 15/12 Q1004 RMK 1ST001 A2967
RJOB 201217Z 13008KT 080V170 2000 SHRA BR BCFG FEW000 SCT001 BKN002 18/18 Q1003 RMK 1ST000 3ST001 5ST002 A2964 FG ALL QUAD
RJOB 201200Z 12006KT 080V190 3500 SHRA BR BCFG FEW000 SCT002 BKN003 18/17 Q1003
RJOB 201131Z 12012G23KT 070V160 2500 SHRA BR FEW001 BKN002 BKN003 18/18 Q1003 RMK 1ST001 5ST002 6ST003 A2964
RJOB 201115Z 11012KT 4000 SHRA BR FEW001 SCT003 BKN005 18/17 Q1003 RMK 1ST001 4ST003 5ST005 A2963
RJOB 201100Z 11012KT 090V150 6000 SHRA FEW005 BKN008 BKN010 18/17 Q1003
RJOB 201000Z 11014G24KT 070V140 9000 -SHRA FEW005 SCT010 BKN015 18/17 Q1004
RJOB 200900Z 11014KT 9999 -SHRA FEW010 BKN015 BKN045 19/16 Q1004
RJOB 200800Z 11016G26KT 080V160 7000 -SHRA FEW010 SCT015 BKN045 18/16 Q1005
RJOB 200700Z 12014G27KT 090V150 9999 -SHRA FEW010 BKN015 BKN050 20/16 Q1005
RJOB 200606Z 12016G27KT 090V150 9999 FEW010 SCT015 BKN050 20/16 Q1006 RMK 2CU010 4CU015 5SC050 A2971
RJOB 200600Z 12015KT 080V150 9999 FEW010 SCT015 BKN050 20/16 Q1006
RJOB 200542Z 11015G29KT 080V150 9999 FEW010 SCT015 BKN050 20/16 Q1006 RMK 2CU010 4CU015 5SC050 A2972
RJOB 200500Z 11015KT 9999 FEW010 SCT015 BKN050 20/16 Q1006
RJOB 200400Z 11014G27KT 080V150 9999 -RA FEW015 SCT020 BKN090 20/17 Q1007
RJOB 200300Z 12017G28KT 9999 FEW015 SCT020 BKN040 21/16 Q1008
RJOB 200200Z 11017G31KT 9999 FEW015 BKN020 BKN050 21/16 Q1008
RJOB 200109Z 11016G35KT 080V140 9999 FEW015 BKN020 BKN030 21/16 Q1009 RMK 1CU015 5CU020 7CU030 A2979
RJOB 200100Z 11015KT 080V140 9999 FEW015 BKN020 BKN060 21/16 Q1009
RJOB 200022Z 11015G30KT 080V140 9999 FEW010 BKN015 20/16 Q1009 RMK 1CU010 7CU015 A2981
RJOB 200000Z 11014KT 9999 FEW010 BKN015 20/16 Q1009
RJOB 192300Z 10013KT 080V140 9999 -RA FEW010 BKN015 18/16 Q1010
RJOB 192200Z 10016G26KT 080V140 9999 FEW010 BKN015 18/15 Q1010
RJOB 192115Z 10015KT 080V140 9999 FEW010 BKN015 18/15 Q1011 RMK 1CU010 7CU015 A2985
RJOB 191200Z 11009KT 090V160 9999 FEW030 BKN060 19/13 Q1015
RJOB 191100Z 12011G21KT 090V150 9999 FEW030 BKN050 BKN150 19/13 Q1015
RJOB 191000Z 11010KT 080V140 9999 FEW025 SCT050 BKN170 19/13 Q1015
RJOB 190900Z 12012KT 080V150 9999 FEW025 SCT060 BKN180 20/13 Q1015
RJOB 190800Z 12011G21KT 080V150 9999 FEW030 BKN060 20/13 Q1015
RJOB 190700Z 11012G22KT 080V180 9999 FEW030 BKN050 20/13 Q1015
RJOB 190600Z 12014G25KT 090V150 9999 FEW030 BKN050 21/14 Q1015
RJOB 190500Z 11015G28KT 080V150 9999 FEW025 SCT030 BKN060 22/14 Q1015
RJOB 190400Z 11014G25KT 070V150 9999 FEW025 SCT030 BKN/// 22/14 Q1016
RJOB 190342Z 11015G29KT 080V150 9999 FEW025 SCT030 BKN/// 23/15 Q1016 RMK 1CU025 4CU030 A3001
RJOB 190300Z 13013KT 090V170 9999 FEW025 SCT030 BKN/// 22/15 Q1016
RJOB 190212Z 11016G26KT 070V130 9999 FEW025 SCT030 BKN/// 22/13 Q1016 RMK 1CU025 4CU030 A3003
RJOB 190200Z 11016KT 090V160 9999 FEW025 SCT030 BKN/// 22/13 Q1017
RJOB 190114Z 10016G26KT 070V150 9999 FEW025 SCT030 BKN/// 22/13 Q1017 RMK 1CU025 3CU030 A3003
RJOB 190100Z 11017KT 080V140 9999 FEW025 SCT030 BKN/// 22/13 Q1017
RJOB 190040Z 11015G26KT 9999 FEW025 BKN/// 22/13 Q1017 RMK 1CU025 A3005
RJOB 190000Z 11014KT 9999 FEW025 BKN/// 21/14 Q1017
RJOB 182341Z 11015G25KT 060V140 9999 FEW020 BKN/// 20/14 Q1017 RMK 1CU020 A3005
RJOB 182300Z 10014KT 9999 FEW020 BKN/// 20/14 Q1018